createdAt,value
2023-01-05T00:01:39.387Z,19.40
2023-01-05T00:04:08.244Z,21.07
2023-01-05T00:06:37.490Z,18.30
2023-01-05T00:09:06.672Z,20.33
2023-01-05T00:11:53.853Z,19.83
2023-01-05T00:14:41.852Z,16.40
2023-01-05T00:17:29.781Z,17.70
2023-01-05T00:20:15.945Z,17.03
2023-01-05T00:22:47.658Z,17.20
2023-01-05T00:25:17.424Z,16.20
2023-01-05T00:27:50.759Z,18.60
2023-01-05T00:30:20.582Z,19.00
2023-01-05T00:32:50.766Z,17.30
2023-01-05T00:35:19.517Z,16.07
2023-01-05T00:37:47.940Z,17.60
2023-01-05T00:40:17.882Z,15.37
2023-01-05T00:42:48.465Z,16.07
2023-01-05T00:45:18.906Z,16.40
2023-01-05T00:47:47.452Z,16.43
2023-01-05T00:50:17.515Z,17.20
2023-01-05T00:52:46.292Z,17.23
2023-01-05T00:55:14.634Z,16.60
2023-01-05T00:57:43.500Z,16.97
2023-01-05T01:00:17.381Z,16.27
2023-01-05T01:02:46.232Z,17.03
2023-01-05T01:05:16.135Z,19.40
2023-01-05T01:07:44.511Z,17.77
2023-01-05T01:10:13.863Z,17.77
2023-01-05T01:12:45.084Z,16.10
2023-01-05T01:15:14.863Z,15.93
2023-01-05T01:17:43.789Z,14.60
2023-01-05T01:20:12.409Z,15.93
2023-01-05T01:22:40.967Z,16.03
2023-01-05T01:25:10.240Z,14.63
2023-01-05T01:27:38.708Z,14.43
2023-01-05T01:30:08.373Z,14.57
2023-01-05T01:32:38.194Z,14.60
2023-01-05T01:35:08.585Z,15.33
2023-01-05T01:37:37.416Z,14.73
2023-01-05T01:40:08.244Z,13.70
2023-01-05T01:42:36.726Z,14.23
2023-01-05T01:45:17.286Z,15.77
2023-01-05T01:47:50.674Z,15.00
2023-01-05T01:50:23.102Z,15.17
2023-01-05T01:52:52.705Z,13.17
2023-01-05T01:55:22.043Z,14.60
2023-01-05T01:57:51.795Z,14.83
2023-01-05T02:00:22.791Z,13.73
2023-01-05T02:02:56.356Z,15.00
2023-01-05T02:05:28.988Z,13.70
2023-01-05T02:07:57.285Z,12.87
2023-01-05T02:10:34.205Z,13.73
2023-01-05T02:13:14.051Z,11.33
2023-01-05T02:15:48.824Z,13.07
2023-01-05T02:18:29.674Z,15.00
2023-01-05T02:21:30.338Z,12.67
2023-01-05T02:24:22.550Z,13.43
2023-01-05T02:27:33.783Z,12.90
2023-01-05T02:30:59.934Z,13.40
2023-01-05T02:33:47.042Z,13.00
2023-01-05T02:36:24.926Z,14.53
2023-01-05T02:39:03.420Z,16.83
2023-01-05T02:41:35.280Z,16.17
2023-01-05T02:44:04.901Z,18.03
2023-01-05T02:46:33.569Z,20.43
2023-01-05T02:49:06.593Z,17.47
2023-01-05T02:51:39.505Z,19.60
2023-01-05T02:54:11.095Z,16.60
2023-01-05T02:56:42.702Z,18.00
2023-01-05T02:59:15.419Z,17.90
2023-01-05T03:01:46.910Z,19.83
2023-01-05T03:04:20.579Z,17.20
2023-01-05T03:06:56.756Z,18.63
2023-01-05T03:09:29.173Z,13.87
2023-01-05T03:12:23.365Z,14.57
2023-01-05T03:14:55.478Z,13.97
2023-01-05T03:17:27.261Z,12.80
2023-01-05T03:19:56.909Z,12.90
2023-01-05T03:22:46.456Z,13.33
2023-01-05T03:25:34.884Z,12.17
2023-01-05T03:28:23.323Z,11.67
2023-01-05T03:31:17.285Z,12.47
2023-01-05T03:34:08.215Z,12.23
2023-01-05T03:36:43.670Z,11.50
2023-01-05T03:39:13.823Z,10.73
2023-01-05T03:41:42.490Z,12.60
2023-01-05T03:44:11.651Z,14.33
2023-01-05T03:46:41.782Z,13.27
2023-01-05T03:49:11.496Z,14.00
2023-01-05T03:51:42.087Z,13.23
2023-01-05T03:54:12.043Z,11.73
2023-01-05T03:56:42.411Z,13.50
2023-01-05T03:59:10.872Z,13.13
2023-01-05T04:01:40.866Z,13.33
2023-01-05T04:04:11.213Z,12.63
2023-01-05T04:06:41.355Z,13.30
2023-01-05T04:09:11.675Z,13.40
2023-01-05T04:11:42.730Z,12.83
2023-01-05T04:14:11.040Z,13.33
2023-01-05T04:16:40.016Z,13.43
2023-01-05T04:19:17.559Z,13.90
2023-01-05T04:21:47.809Z,12.03
2023-01-05T04:24:17.461Z,12.50
2023-01-05T04:26:47.329Z,10.87
2023-01-05T04:29:15.714Z,13.00
2023-01-05T04:31:46.899Z,12.60
2023-01-05T04:34:15.356Z,13.00
2023-01-05T04:36:48.079Z,11.70
2023-01-05T04:39:19.949Z,10.60
2023-01-05T04:41:50.686Z,11.60
2023-01-05T04:44:21.174Z,9.70
2023-01-05T04:46:50.704Z,10.40
2023-01-05T04:49:20.129Z,10.83
2023-01-05T04:51:51.185Z,8.40
2023-01-05T04:54:24.280Z,9.57
2023-01-05T04:56:53.931Z,8.30
2023-01-05T04:59:22.651Z,9.60
2023-01-05T05:01:54.194Z,9.50
2023-01-05T05:04:22.681Z,8.13
2023-01-05T05:06:52.269Z,10.47
2023-01-05T05:09:24.227Z,9.67
2023-01-05T05:11:52.718Z,11.07
2023-01-05T05:14:23.955Z,10.90
2023-01-05T05:16:52.661Z,12.13
2023-01-05T05:19:21.024Z,12.83
2023-01-05T05:21:50.148Z,12.50
2023-01-05T05:24:18.559Z,14.50
2023-01-05T05:26:49.276Z,14.33
2023-01-05T05:29:17.686Z,14.27
2023-01-05T05:31:46.230Z,13.93
2023-01-05T05:34:14.562Z,14.73
2023-01-05T05:36:42.903Z,14.03
2023-01-05T05:39:13.035Z,14.23
2023-01-05T05:41:41.456Z,14.30
2023-01-05T05:44:11.803Z,15.93
2023-01-05T05:46:40.131Z,15.87
2023-01-05T05:49:08.870Z,14.50
2023-01-05T05:51:37.235Z,12.40
2023-01-05T05:54:05.769Z,15.00
2023-01-05T05:56:34.122Z,14.07
2023-01-05T05:59:02.444Z,13.50
2023-01-05T06:01:32.255Z,13.47
2023-01-05T06:04:00.672Z,13.90
2023-01-05T06:06:28.970Z,12.90
2023-01-05T06:08:57.298Z,14.23
2023-01-05T06:11:25.728Z,13.03
2023-01-05T06:13:54.258Z,11.90
2023-01-05T06:16:22.960Z,11.13
2023-01-05T06:18:54.043Z,12.63
2023-01-05T06:21:22.606Z,13.60
2023-01-05T06:23:51.080Z,10.57
2023-01-05T06:26:20.156Z,9.30
2023-01-05T06:28:48.638Z,7.07
2023-01-05T06:31:16.973Z,5.37
2023-01-05T06:33:45.259Z,8.50
2023-01-05T06:36:14.999Z,5.13
2023-01-05T06:38:43.241Z,9.47
2023-01-05T06:41:11.693Z,9.30
2023-01-05T06:43:40.090Z,8.00
2023-01-05T06:46:08.534Z,10.03
2023-01-05T06:48:36.848Z,9.07
2023-01-05T06:51:05.451Z,9.77
2023-01-05T06:53:35.216Z,6.70
2023-01-05T06:56:03.972Z,10.67
2023-01-05T06:58:32.273Z,9.17
2023-01-05T07:01:00.606Z,10.70
2023-01-05T07:03:28.987Z,11.70
2023-01-05T07:05:57.387Z,17.93
2023-01-05T07:08:25.969Z,12.93
2023-01-05T07:10:56.164Z,12.30
2023-01-05T07:13:24.648Z,10.30
2023-01-05T07:15:54.866Z,8.53
2023-01-05T07:18:23.373Z,10.23
2023-01-05T07:20:51.927Z,11.37
2023-01-05T07:23:21.565Z,9.40
2023-01-05T07:25:50.237Z,10.30
2023-01-05T07:28:20.223Z,10.57
2023-01-05T07:30:52.710Z,10.63
2023-01-05T07:33:21.142Z,9.60
2023-01-05T07:35:49.428Z,10.07
2023-01-05T07:38:17.756Z,8.60
2023-01-05T07:40:46.083Z,9.20
2023-01-05T07:43:16.533Z,9.87
2023-01-05T07:45:46.293Z,9.43
2023-01-05T07:48:18.958Z,9.63
2023-01-05T07:50:50.369Z,9.40
2023-01-05T07:53:21.099Z,9.00
2023-01-05T07:55:58.000Z,9.60
2023-01-05T07:58:26.523Z,9.40
2023-01-05T08:00:56.614Z,9.60
2023-01-05T08:03:25.069Z,9.40
2023-01-05T08:05:53.363Z,9.40
2023-01-05T08:08:24.555Z,8.83
2023-01-05T08:10:53.286Z,8.10
2023-01-05T08:13:39.038Z,8.57
2023-01-05T08:16:10.022Z,7.73
2023-01-05T08:18:38.401Z,7.07
2023-01-05T08:21:08.762Z,7.37
2023-01-05T08:23:38.261Z,6.90
2023-01-05T08:26:07.821Z,5.83
2023-01-05T08:28:36.559Z,6.53
2023-01-05T08:31:05.743Z,7.20
2023-01-05T08:33:35.785Z,7.30
2023-01-05T08:36:09.354Z,6.77
2023-01-05T08:38:37.976Z,6.70
2023-01-05T08:41:06.717Z,6.27
2023-01-05T08:43:35.041Z,6.93
2023-01-05T08:46:03.458Z,6.90
2023-01-05T08:48:31.974Z,6.53
2023-01-05T08:51:06.345Z,6.23
2023-01-05T08:53:35.808Z,6.23
2023-01-05T08:56:04.238Z,6.47
2023-01-05T08:58:32.565Z,5.87
2023-01-05T09:01:01.306Z,6.30
2023-01-05T09:03:29.743Z,6.33
2023-01-05T09:06:02.546Z,6.73
2023-01-05T09:08:32.512Z,5.67
2023-01-05T09:11:07.708Z,5.43
2023-01-05T09:13:36.279Z,6.07
2023-01-05T09:16:10.084Z,6.20
2023-01-05T09:18:39.296Z,5.90
2023-01-05T09:21:07.935Z,6.40
2023-01-05T09:23:40.762Z,5.40
2023-01-05T09:26:10.207Z,4.93
2023-01-05T09:28:39.869Z,7.63
2023-01-05T09:31:09.895Z,8.70
2023-01-05T09:33:40.995Z,11.37
2023-01-05T09:36:13.747Z,9.47
2023-01-05T09:38:47.092Z,8.50
2023-01-05T09:41:22.669Z,6.67
2023-01-05T09:43:53.374Z,6.10
2023-01-05T09:46:25.007Z,5.87
2023-01-05T09:48:56.649Z,5.77
2023-01-05T09:51:25.086Z,6.13
2023-01-05T09:53:55.250Z,6.13
2023-01-05T09:57:07.357Z,5.53
2023-01-05T09:59:24.124Z,6.47
2023-01-05T10:01:54.311Z,6.17
2023-01-05T10:04:30.361Z,5.83
2023-01-05T10:07:02.317Z,8.00
2023-01-05T10:09:34.854Z,6.80
2023-01-05T10:12:25.585Z,6.10
2023-01-05T10:14:57.255Z,7.40
2023-01-05T10:17:44.272Z,6.50
2023-01-05T10:20:19.130Z,7.40
2023-01-05T10:23:04.124Z,7.80
2023-01-05T10:25:40.704Z,7.90
2023-01-05T10:28:25.200Z,8.83
2023-01-05T10:30:58.988Z,9.83
2023-01-05T10:33:46.348Z,12.03
2023-01-05T10:37:06.561Z,10.50
2023-01-05T10:39:27.504Z,13.60
2023-01-05T10:42:05.671Z,13.90
2023-01-05T10:44:48.949Z,14.87
2023-01-05T10:47:17.513Z,14.90
2023-01-05T10:49:47.804Z,13.90
2023-01-05T10:52:18.335Z,14.00
2023-01-05T10:54:48.999Z,14.20
2023-01-05T10:57:41.475Z,10.93
2023-01-05T11:00:14.438Z,10.57
2023-01-05T11:02:47.411Z,10.27
2023-01-05T11:05:28.119Z,10.80
2023-01-05T11:07:58.637Z,10.90
2023-01-05T11:10:31.356Z,12.40
2023-01-05T11:13:07.252Z,12.17
2023-01-05T11:15:42.527Z,12.47
2023-01-05T11:18:25.146Z,11.87
2023-01-05T11:21:07.226Z,11.67
2023-01-05T11:23:37.877Z,13.40
2023-01-05T11:26:27.658Z,11.70
2023-01-05T11:29:15.823Z,10.77
2023-01-05T11:31:53.613Z,11.13
2023-01-05T11:34:46.809Z,8.63
2023-01-05T11:37:24.007Z,8.57
2023-01-05T11:39:53.999Z,9.50
2023-01-05T11:42:30.828Z,9.60
2023-01-05T11:45:03.211Z,9.50
2023-01-05T11:47:43.259Z,9.43
2023-01-05T11:50:25.167Z,8.93
2023-01-05T11:52:55.075Z,8.47
2023-01-05T11:55:31.934Z,8.30
2023-01-05T11:58:25.731Z,7.90
2023-01-05T12:01:12.878Z,7.53
2023-01-05T12:04:01.448Z,7.50
2023-01-05T12:06:53.235Z,8.40
2023-01-05T12:09:29.786Z,8.53
2023-01-05T12:12:14.895Z,8.13
2023-01-05T12:14:53.111Z,9.00
2023-01-05T12:17:29.747Z,9.03
2023-01-05T12:20:05.483Z,9.00
2023-01-05T12:22:49.733Z,10.03
2023-01-05T12:25:24.541Z,9.53
2023-01-05T12:28:05.686Z,9.03
2023-01-05T12:32:34.268Z,9.27
2023-01-05T12:34:02.630Z,9.40
2023-01-05T12:36:47.283Z,9.70
2023-01-05T12:39:51.115Z,12.37
2023-01-05T12:42:45.830Z,11.90
2023-01-05T12:45:31.848Z,11.10
2023-01-05T12:48:03.856Z,11.30
2023-01-05T12:50:36.624Z,10.23
2023-01-05T12:53:15.248Z,10.27
2023-01-05T12:55:46.331Z,8.87
2023-01-05T12:58:18.495Z,8.63
2023-01-05T13:00:48.250Z,8.57
2023-01-05T13:03:21.591Z,8.57
2023-01-05T13:05:56.436Z,9.37
2023-01-05T13:08:30.354Z,9.03
2023-01-05T13:11:02.596Z,9.30
2023-01-05T13:13:35.603Z,10.33
2023-01-05T13:16:06.309Z,9.10
2023-01-05T13:18:37.642Z,9.40
2023-01-05T13:21:14.592Z,10.27
2023-01-05T13:23:46.149Z,10.10
2023-01-05T13:26:17.627Z,10.67
2023-01-05T13:28:48.273Z,10.70
2023-01-05T13:31:34.677Z,9.17
2023-01-05T13:34:17.059Z,8.90
2023-01-05T13:37:01.957Z,9.77
2023-01-05T13:39:44.040Z,11.50
2023-01-05T13:42:36.889Z,10.50
2023-01-05T13:45:23.841Z,9.87
2023-01-05T13:48:25.322Z,11.03
2023-01-05T13:51:26.248Z,11.03
2023-01-05T13:53:59.398Z,10.27
2023-01-05T13:56:29.396Z,10.33
2023-01-05T13:59:01.508Z,10.40
2023-01-05T14:01:37.887Z,8.33
2023-01-05T14:04:07.450Z,9.47
2023-01-05T14:06:38.011Z,7.70
2023-01-05T14:09:14.474Z,6.53
2023-01-05T14:12:24.131Z,6.53
2023-01-05T14:15:01.061Z,5.83
2023-01-05T14:17:55.614Z,3.87
2023-01-05T14:20:46.838Z,2.03
2023-01-05T14:23:52.720Z,1.40
2023-01-05T14:27:01.453Z,2.80
2023-01-05T14:30:09.180Z,1.73
2023-01-05T14:32:38.590Z,0.87
2023-01-05T14:35:15.356Z,0.87
2023-01-05T14:37:53.035Z,0.87
2023-01-05T14:40:29.409Z,0.43
2023-01-05T14:43:00.991Z,0.30
2023-01-05T14:45:30.640Z,0.80
2023-01-05T14:48:00.097Z,0.50
2023-01-05T14:50:34.474Z,0.60
2023-01-05T14:53:07.561Z,0.57
2023-01-05T14:55:38.737Z,0.37
2023-01-05T14:58:13.921Z,0.40
2023-01-05T15:00:46.373Z,0.47
2023-01-05T15:03:36.460Z,0.47
2023-01-05T15:06:09.047Z,0.63
2023-01-05T15:09:14.638Z,0.70
2023-01-05T15:12:07.445Z,0.63
2023-01-05T15:15:19.109Z,1.93
2023-01-05T15:18:33.841Z,0.90
2023-01-05T15:21:24.487Z,1.53
2023-01-05T15:24:11.822Z,0.83
2023-01-05T15:26:54.363Z,2.47
2023-01-05T15:29:47.798Z,1.50
2023-01-05T15:32:21.198Z,0.77
2023-01-05T15:34:54.283Z,2.10
2023-01-05T15:37:26.466Z,2.33
2023-01-05T15:39:56.504Z,1.60
2023-01-05T15:42:28.219Z,1.17
2023-01-05T15:44:57.186Z,0.80
2023-01-05T15:47:29.454Z,0.60
2023-01-05T15:49:59.363Z,1.10
2023-01-05T15:52:33.336Z,0.97
2023-01-05T15:55:04.125Z,1.23
2023-01-05T15:57:32.713Z,1.40
2023-01-05T16:00:01.223Z,1.37
2023-01-05T16:02:32.090Z,0.97
2023-01-05T16:05:15.690Z,1.27
2023-01-05T16:07:51.166Z,0.80
2023-01-05T16:10:21.787Z,1.37
2023-01-05T16:12:53.398Z,1.20
2023-01-05T16:15:23.931Z,1.10
2023-01-05T16:17:56.535Z,1.50
2023-01-05T16:20:26.757Z,1.77
2023-01-05T16:23:04.553Z,4.37
2023-01-05T16:25:41.133Z,6.27
2023-01-05T16:28:17.131Z,3.70
2023-01-05T16:30:46.555Z,5.17
2023-01-05T16:33:33.694Z,3.10
2023-01-05T16:36:12.334Z,3.80
2023-01-05T16:38:41.716Z,3.93
2023-01-05T16:41:15.134Z,3.17
2023-01-05T16:43:52.040Z,3.37
2023-01-05T16:46:32.851Z,3.93
2023-01-05T16:49:07.256Z,5.80
2023-01-05T16:51:41.254Z,4.70
2023-01-05T16:54:23.418Z,6.20
2023-01-05T16:56:58.176Z,11.03
2023-01-05T16:59:44.810Z,3.00
2023-01-05T17:02:52.655Z,3.03
2023-01-05T17:05:24.821Z,4.33
2023-01-05T17:08:00.682Z,4.87
2023-01-05T17:10:29.573Z,3.60
2023-01-05T17:13:01.676Z,4.80
2023-01-05T17:15:33.726Z,4.70
2023-01-05T17:18:02.883Z,3.87
2023-01-05T17:20:36.648Z,5.60
2023-01-05T17:23:05.363Z,4.33
2023-01-05T17:25:34.886Z,5.70
2023-01-05T17:28:03.420Z,4.70
2023-01-05T17:30:31.997Z,5.50
2023-01-05T17:33:00.498Z,5.30
2023-01-05T17:35:29.122Z,7.00
2023-01-05T17:37:59.313Z,5.67
2023-01-05T17:40:28.665Z,4.53
2023-01-05T17:43:02.820Z,2.87
2023-01-05T17:45:34.626Z,3.90
2023-01-05T17:48:28.759Z,3.80
2023-01-05T17:50:58.819Z,3.97
2023-01-05T17:53:37.521Z,10.10
2023-01-05T17:56:12.147Z,8.70
2023-01-05T17:58:41.541Z,12.07
2023-01-05T18:01:10.045Z,10.43
2023-01-05T18:03:38.619Z,6.63
2023-01-05T18:06:09.343Z,8.70
2023-01-05T18:08:39.685Z,5.10
2023-01-05T18:11:09.464Z,8.47
2023-01-05T18:13:38.127Z,8.77
2023-01-05T18:16:08.308Z,8.47
2023-01-05T18:18:37.329Z,8.60
2023-01-05T18:21:07.364Z,7.30
2023-01-05T18:23:36.611Z,8.33
2023-01-05T18:26:09.347Z,8.70
2023-01-05T18:28:38.746Z,8.90
2023-01-05T18:31:12.612Z,8.43
2023-01-05T18:33:42.065Z,7.70
2023-01-05T18:36:14.091Z,9.13
2023-01-05T18:38:44.254Z,8.87
2023-01-05T18:41:14.715Z,9.20
2023-01-05T18:43:43.274Z,8.60
2023-01-05T18:46:14.670Z,9.00
2023-01-05T18:48:45.427Z,9.43
2023-01-05T18:51:17.465Z,8.90
2023-01-05T18:53:50.816Z,9.80
2023-01-05T18:56:22.113Z,9.40
2023-01-05T18:58:53.998Z,8.73
2023-01-05T19:01:24.889Z,8.03
2023-01-05T19:03:54.851Z,8.63
2023-01-05T19:06:25.032Z,8.67
2023-01-05T19:08:58.755Z,8.37
2023-01-05T19:11:34.761Z,8.97
2023-01-05T19:14:08.224Z,10.27
2023-01-05T19:16:37.187Z,9.27
2023-01-05T19:19:20.795Z,8.80
2023-01-05T19:21:56.844Z,8.73
2023-01-05T19:24:28.646Z,9.00
2023-01-05T19:27:03.610Z,8.83
2023-01-05T19:29:48.051Z,9.00
2023-01-05T19:32:16.794Z,9.50
2023-01-05T19:34:52.481Z,9.23
2023-01-05T19:37:23.294Z,9.47
2023-01-05T19:39:52.273Z,9.57
2023-01-05T19:42:22.330Z,8.80
2023-01-05T19:45:15.736Z,9.27
2023-01-05T19:47:45.374Z,8.80
2023-01-05T19:50:16.401Z,10.03
2023-01-05T19:52:45.177Z,9.00
2023-01-05T19:55:22.783Z,9.07
2023-01-05T19:57:54.146Z,9.83
2023-01-05T20:00:24.287Z,9.03
2023-01-05T20:02:52.948Z,9.57
2023-01-05T20:05:22.351Z,10.20
2023-01-05T20:07:54.105Z,11.53
2023-01-05T20:10:27.897Z,12.07
2023-01-05T20:13:02.396Z,12.07
2023-01-05T20:15:35.726Z,10.83
2023-01-05T20:18:06.320Z,10.87
2023-01-05T20:20:37.228Z,12.50
2023-01-05T20:23:07.887Z,16.37
2023-01-05T20:25:41.705Z,16.43
2023-01-05T20:28:15.895Z,17.30
2023-01-05T20:30:45.261Z,13.40
2023-01-05T20:33:16.702Z,13.43
2023-01-05T20:35:48.890Z,12.00
2023-01-05T20:38:21.810Z,12.33
2023-01-05T20:40:52.913Z,10.43
2023-01-05T20:43:27.546Z,11.07
2023-01-05T20:45:56.963Z,9.43
2023-01-05T20:48:28.707Z,10.80
2023-01-05T20:51:08.470Z,10.60
2023-01-05T20:53:37.884Z,9.53
2023-01-05T20:56:12.940Z,10.30
2023-01-05T20:58:44.831Z,9.00
2023-01-05T21:01:16.781Z,10.17
2023-01-05T21:03:49.516Z,10.67
2023-01-05T21:06:28.218Z,10.90
2023-01-05T21:09:09.496Z,11.33
2023-01-05T21:11:39.421Z,9.87
2023-01-05T21:14:10.044Z,10.83
2023-01-05T21:16:43.417Z,9.93
2023-01-05T21:19:17.521Z,10.90
2023-01-05T21:21:46.914Z,10.33
2023-01-05T21:24:17.462Z,12.27
2023-01-05T21:26:46.141Z,10.83
2023-01-05T21:29:16.494Z,11.67
2023-01-05T21:31:45.514Z,11.60
2023-01-05T21:34:15.246Z,9.87
2023-01-05T21:36:46.049Z,11.00
2023-01-05T21:39:19.031Z,10.83
2023-01-05T21:42:05.733Z,10.60
2023-01-05T21:44:36.719Z,11.10
2023-01-05T21:47:06.600Z,12.13
2023-01-05T21:49:35.183Z,13.10
2023-01-05T21:52:21.316Z,10.70
2023-01-05T21:55:07.299Z,12.10
2023-01-05T21:57:35.635Z,11.70
2023-01-05T22:00:06.533Z,11.30
2023-01-05T22:02:34.848Z,12.80
2023-01-05T22:05:03.150Z,12.17
2023-01-05T22:07:31.457Z,10.90
2023-01-05T22:09:59.878Z,10.80
2023-01-05T22:12:28.720Z,11.10
2023-01-05T22:14:58.432Z,9.90
2023-01-05T22:17:29.789Z,11.20
2023-01-05T22:19:59.553Z,11.50
2023-01-05T22:22:28.291Z,10.30
2023-01-05T22:24:57.004Z,10.63
2023-01-05T22:27:25.455Z,11.10
2023-01-05T22:29:53.780Z,10.37
2023-01-05T22:32:22.076Z,9.90
2023-01-05T22:34:53.158Z,9.70
2023-01-05T22:37:21.571Z,9.50
2023-01-05T22:39:49.947Z,10.13
2023-01-05T22:42:18.461Z,11.00
2023-01-05T22:44:46.935Z,11.40
2023-01-05T22:47:15.218Z,11.37
2023-01-05T22:49:43.565Z,9.57
2023-01-05T22:52:13.429Z,10.40
2023-01-05T22:54:41.866Z,9.33
2023-01-05T22:57:10.327Z,10.90
2023-01-05T22:59:38.891Z,11.03
2023-01-05T23:02:08.222Z,9.67
2023-01-05T23:04:36.675Z,10.10
2023-01-05T23:07:05.083Z,10.80
2023-01-05T23:09:34.951Z,9.80
2023-01-05T23:12:03.937Z,10.50
2023-01-05T23:14:32.843Z,10.10
2023-01-05T23:17:01.369Z,8.93
2023-01-05T23:19:29.850Z,10.03
2023-01-05T23:21:58.423Z,9.90
2023-01-05T23:24:26.858Z,9.37
2023-01-05T23:26:57.155Z,9.10
2023-01-05T23:29:26.757Z,10.47
2023-01-05T23:31:55.990Z,8.37
2023-01-05T23:34:24.528Z,11.17
2023-01-05T23:36:52.931Z,10.37
2023-01-05T23:39:21.389Z,9.87
2023-01-05T23:41:49.803Z,10.60
2023-01-05T23:44:21.975Z,6.93
2023-01-05T23:46:50.723Z,8.80
2023-01-05T23:49:19.157Z,9.27
2023-01-05T23:51:47.798Z,7.27
2023-01-05T23:54:16.212Z,8.83
2023-01-05T23:56:44.879Z,9.00
2023-01-05T23:59:13.415Z,8.50
